sensor_id;sensor_type;location;lat;lon;timestamp;pressure;altitude;pressure_sealevel;temperature;humidity
61394;BME280;48555;50.952;-0.120;2023-01-25T00:00:18;103202.81;;;6.22;74.37
61394;BME280;48555;50.952;-0.120;2023-01-25T00:02:43;103210.81;;;6.07;74.79
61394;BME280;48555;50.952;-0.120;2023-01-25T00:05:09;103204.66;;;6.16;74.70
61394;BME280;48555;50.952;-0.120;2023-01-25T00:07:34;103199.38;;;6.20;74.59
61394;BME280;48555;50.952;-0.120;2023-01-25T00:09:59;103199.28;;;6.26;74.49
61394;BME280;48555;50.952;-0.120;2023-01-25T00:12:25;103176.03;;;6.17;74.23
61394;BME280;48555;50.952;-0.120;2023-01-25T00:14:51;103194.22;;;6.19;73.92
61394;BME280;48555;50.952;-0.120;2023-01-25T00:17:16;103201.28;;;6.09;74.15
61394;BME280;48555;50.952;-0.120;2023-01-25T00:19:41;103190.09;;;6.02;74.64
61394;BME280;48555;50.952;-0.120;2023-01-25T00:22:07;103194.53;;;5.96;74.64
61394;BME280;48555;50.952;-0.120;2023-01-25T00:24:33;103189.41;;;5.85;74.77
61394;BME280;48555;50.952;-0.120;2023-01-25T00:26:58;103185.94;;;5.87;74.71
61394;BME280;48555;50.952;-0.120;2023-01-25T00:29:24;103196.25;;;5.95;75.00
61394;BME280;48555;50.952;-0.120;2023-01-25T00:32:26;103184.91;;;6.04;74.96
61394;BME280;48555;50.952;-0.120;2023-01-25T00:34:52;103182.16;;;6.13;74.87
61394;BME280;48555;50.952;-0.120;2023-01-25T00:37:38;103169.13;;;6.16;74.54
61394;BME280;48555;50.952;-0.120;2023-01-25T00:40:05;103172.44;;;6.27;74.47
61394;BME280;48555;50.952;-0.120;2023-01-25T00:42:31;103167.25;;;6.26;74.16
61394;BME280;48555;50.952;-0.120;2023-01-25T00:44:56;103181.13;;;6.25;74.44
61394;BME280;48555;50.952;-0.120;2023-01-25T00:47:21;103174.28;;;6.18;74.27
61394;BME280;48555;50.952;-0.120;2023-01-25T00:49:47;103172.53;;;6.20;74.29
61394;BME280;48555;50.952;-0.120;2023-01-25T00:52:13;103175.09;;;6.23;74.29
61394;BME280;48555;50.952;-0.120;2023-01-25T00:54:39;103162.97;;;6.23;74.34
61394;BME280;48555;50.952;-0.120;2023-01-25T00:57:04;103163.75;;;6.30;74.04
61394;BME280;48555;50.952;-0.120;2023-01-25T00:59:31;103162.75;;;6.39;74.15
61394;BME280;48555;50.952;-0.120;2023-01-25T01:01:57;103166.09;;;6.45;73.76
61394;BME280;48555;50.952;-0.120;2023-01-25T01:04:22;103169.59;;;6.44;73.58
61394;BME280;48555;50.952;-0.120;2023-01-25T01:06:52;103166.31;;;6.31;73.63
61394;BME280;48555;50.952;-0.120;2023-01-25T01:09:18;103152.50;;;6.28;73.93
61394;BME280;48555;50.952;-0.120;2023-01-25T01:11:44;103157.66;;;6.32;73.69
61394;BME280;48555;50.952;-0.120;2023-01-25T01:14:10;103152.41;;;6.34;73.68
61394;BME280;48555;50.952;-0.120;2023-01-25T01:16:36;103152.47;;;6.31;73.67
61394;BME280;48555;50.952;-0.120;2023-01-25T01:19:02;103146.47;;;6.27;73.67
61394;BME280;48555;50.952;-0.120;2023-01-25T01:21:27;103144.78;;;6.23;73.80
61394;BME280;48555;50.952;-0.120;2023-01-25T01:23:53;103148.22;;;6.25;73.97
61394;BME280;48555;50.952;-0.120;2023-01-25T01:26:19;103145.72;;;6.19;73.70
61394;BME280;48555;50.952;-0.120;2023-01-25T01:28:44;103146.66;;;6.13;74.15
61394;BME280;48555;50.952;-0.120;2023-01-25T01:31:15;103147.50;;;6.14;73.85
61394;BME280;48555;50.952;-0.120;2023-01-25T01:33:41;103150.22;;;6.06;74.17
61394;BME280;48555;50.952;-0.120;2023-01-25T01:36:12;103151.19;;;6.01;74.15
61394;BME280;48555;50.952;-0.120;2023-01-25T01:38:38;103151.13;;;6.04;74.34
61394;BME280;48555;50.952;-0.120;2023-01-25T01:41:03;103150.19;;;6.09;74.33
61394;BME280;48555;50.952;-0.120;2023-01-25T01:43:29;103149.19;;;6.17;74.14
61394;BME280;48555;50.952;-0.120;2023-01-25T01:45:58;103152.59;;;6.22;73.85
61394;BME280;48555;50.952;-0.120;2023-01-25T01:51:19;103142.25;;;6.19;73.78
61394;BME280;48555;50.952;-0.120;2023-01-25T01:53:50;103138.06;;;6.10;74.12
61394;BME280;48555;50.952;-0.120;2023-01-25T01:56:21;103146.94;;;5.92;74.03
61394;BME280;48555;50.952;-0.120;2023-01-25T01:58:49;103140.97;;;5.82;73.99
61394;BME280;48555;50.952;-0.120;2023-01-25T02:01:17;103138.50;;;5.75;74.40
61394;BME280;48555;50.952;-0.120;2023-01-25T02:03:44;103141.22;;;5.65;74.71
61394;BME280;48555;50.952;-0.120;2023-01-25T02:06:16;103138.56;;;5.70;74.86
61394;BME280;48555;50.952;-0.120;2023-01-25T02:08:45;103135.00;;;5.77;74.93
61394;BME280;48555;50.952;-0.120;2023-01-25T02:11:11;103134.09;;;5.81;74.73
61394;BME280;48555;50.952;-0.120;2023-01-25T02:13:37;103139.28;;;5.81;74.80
61394;BME280;48555;50.952;-0.120;2023-01-25T02:16:03;103139.31;;;5.80;74.88
61394;BME280;48555;50.952;-0.120;2023-01-25T02:18:29;103141.06;;;5.78;74.70
61394;BME280;48555;50.952;-0.120;2023-01-25T02:20:57;103145.34;;;5.80;74.69
61394;BME280;48555;50.952;-0.120;2023-01-25T02:26:15;103134.94;;;5.82;75.12
61394;BME280;48555;50.952;-0.120;2023-01-25T02:28:48;103139.22;;;5.84;74.77
61394;BME280;48555;50.952;-0.120;2023-01-25T02:31:16;103138.28;;;5.91;74.62
61394;BME280;48555;50.952;-0.120;2023-01-25T02:33:42;103141.69;;;5.97;74.49
61394;BME280;48555;50.952;-0.120;2023-01-25T02:38:41;103144.16;;;6.07;74.30
61394;BME280;48555;50.952;-0.120;2023-01-25T02:41:12;103138.09;;;6.07;74.18
61394;BME280;48555;50.952;-0.120;2023-01-25T02:43:40;103138.06;;;6.08;74.50
61394;BME280;48555;50.952;-0.120;2023-01-25T02:46:29;103131.19;;;6.04;74.25
61394;BME280;48555;50.952;-0.120;2023-01-25T02:48:57;103125.19;;;6.01;74.54
61394;BME280;48555;50.952;-0.120;2023-01-25T02:51:24;103126.94;;;6.00;74.24
61394;BME280;48555;50.952;-0.120;2023-01-25T02:53:50;103127.84;;;5.98;74.51
61394;BME280;48555;50.952;-0.120;2023-01-25T02:56:16;103126.09;;;5.98;74.56
61394;BME280;48555;50.952;-0.120;2023-01-25T02:58:42;103115.66;;;6.01;74.50
61394;BME280;48555;50.952;-0.120;2023-01-25T03:01:08;103117.31;;;6.05;74.10
61394;BME280;48555;50.952;-0.120;2023-01-25T03:03:34;103113.78;;;6.12;74.01
61394;BME280;48555;50.952;-0.120;2023-01-25T03:05:59;103121.47;;;6.19;74.13
61394;BME280;48555;50.952;-0.120;2023-01-25T03:08:25;103120.53;;;6.23;73.80
61394;BME280;48555;50.952;-0.120;2023-01-25T03:10:50;103114.44;;;6.25;73.66
61394;BME280;48555;50.952;-0.120;2023-01-25T03:13:15;103122.16;;;6.30;73.61
61394;BME280;48555;50.952;-0.120;2023-01-25T03:15:41;103112.63;;;6.30;73.69
61394;BME280;48555;50.952;-0.120;2023-01-25T03:18:06;103122.16;;;6.30;73.40
61394;BME280;48555;50.952;-0.120;2023-01-25T03:20:31;103110.03;;;6.30;73.57
61394;BME280;48555;50.952;-0.120;2023-01-25T03:22:57;103110.03;;;6.30;73.69
61394;BME280;48555;50.952;-0.120;2023-01-25T03:25:22;103084.22;;;6.20;73.24
61394;BME280;48555;50.952;-0.120;2023-01-25T03:27:48;103104.69;;;6.38;73.24
61394;BME280;48555;50.952;-0.120;2023-01-25T03:30:13;103111.63;;;6.37;73.14
61394;BME280;48555;50.952;-0.120;2023-01-25T03:32:39;103104.78;;;6.33;73.17
61394;BME280;48555;50.952;-0.120;2023-01-25T03:35:04;103115.13;;;6.35;73.04
61394;BME280;48555;50.952;-0.120;2023-01-25T03:37:30;103105.63;;;6.34;73.09
61394;BME280;48555;50.952;-0.120;2023-01-25T03:39:56;103104.75;;;6.35;72.99
61394;BME280;48555;50.952;-0.120;2023-01-25T03:42:22;103102.16;;;6.35;72.90
61394;BME280;48555;50.952;-0.120;2023-01-25T03:44:47;103108.19;;;6.37;72.83
61394;BME280;48555;50.952;-0.120;2023-01-25T03:47:13;103104.75;;;6.35;72.59
61394;BME280;48555;50.952;-0.120;2023-01-25T03:49:38;103109.03;;;6.37;72.82
61394;BME280;48555;50.952;-0.120;2023-01-25T03:52:04;103101.28;;;6.34;72.63
61394;BME280;48555;50.952;-0.120;2023-01-25T03:54:30;103099.63;;;6.30;72.79
61394;BME280;48555;50.952;-0.120;2023-01-25T03:56:55;103093.59;;;6.28;72.75
61394;BME280;48555;50.952;-0.120;2023-01-25T03:59:20;103092.81;;;6.23;72.58
61394;BME280;48555;50.952;-0.120;2023-01-25T04:01:46;103085.06;;;6.20;73.12
61394;BME280;48555;50.952;-0.120;2023-01-25T04:04:11;103095.50;;;6.17;72.80
61394;BME280;48555;50.952;-0.120;2023-01-25T04:06:36;103085.22;;;6.11;72.75
61394;BME280;48555;50.952;-0.120;2023-01-25T04:09:02;103089.53;;;6.12;72.75
61394;BME280;48555;50.952;-0.120;2023-01-25T04:11:27;103082.50;;;6.19;72.73
61394;BME280;48555;50.952;-0.120;2023-01-25T04:13:53;103081.56;;;6.23;72.59
61394;BME280;48555;50.952;-0.120;2023-01-25T04:16:18;103083.19;;;6.28;72.65
61394;BME280;48555;50.952;-0.120;2023-01-25T04:18:44;103079.75;;;6.26;72.61
61394;BME280;48555;50.952;-0.120;2023-01-25T04:21:09;103084.09;;;6.27;72.49
61394;BME280;48555;50.952;-0.120;2023-01-25T04:23:34;103079.75;;;6.26;72.55
61394;BME280;48555;50.952;-0.120;2023-01-25T04:26:02;103072.97;;;6.19;72.43
61394;BME280;48555;50.952;-0.120;2023-01-25T04:28:30;103089.44;;;6.18;72.61
61394;BME280;48555;50.952;-0.120;2023-01-25T04:30:56;103085.06;;;6.20;72.53
61394;BME280;48555;50.952;-0.120;2023-01-25T04:33:22;103089.41;;;6.21;72.46
61394;BME280;48555;50.952;-0.120;2023-01-25T04:35:48;103083.41;;;6.16;72.40
61394;BME280;48555;50.952;-0.120;2023-01-25T04:38:13;103093.00;;;6.12;72.67
61394;BME280;48555;50.952;-0.120;2023-01-25T04:40:39;103094.88;;;6.01;72.39
61394;BME280;48555;50.952;-0.120;2023-01-25T04:43:06;103094.03;;;6.01;72.30
61394;BME280;48555;50.952;-0.120;2023-01-25T04:45:32;103094.84;;;6.03;72.51
61394;BME280;48555;50.952;-0.120;2023-01-25T04:47:59;103090.44;;;6.08;72.38
61394;BME280;48555;50.952;-0.120;2023-01-25T04:50:25;103095.59;;;6.12;72.41
61394;BME280;48555;50.952;-0.120;2023-01-25T04:52:50;103094.75;;;6.12;72.21
61394;BME280;48555;50.952;-0.120;2023-01-25T04:55:16;103088.69;;;6.10;72.26
61394;BME280;48555;50.952;-0.120;2023-01-25T04:57:41;103091.53;;;5.95;72.41
61394;BME280;48555;50.952;-0.120;2023-01-25T05:00:07;103095.78;;;5.99;72.36
61394;BME280;48555;50.952;-0.120;2023-01-25T05:02:33;103098.41;;;5.97;72.45
61394;BME280;48555;50.952;-0.120;2023-01-25T05:04:58;103092.31;;;6.00;72.34
61394;BME280;48555;50.952;-0.120;2023-01-25T05:07:24;103096.59;;;6.02;72.43
61394;BME280;48555;50.952;-0.120;2023-01-25T05:09:49;103091.34;;;6.05;72.30
61394;BME280;48555;50.952;-0.120;2023-01-25T05:12:14;103093.13;;;6.03;72.12
61394;BME280;48555;50.952;-0.120;2023-01-25T05:14:40;103088.78;;;6.04;71.90
61394;BME280;48555;50.952;-0.120;2023-01-25T05:17:06;103094.00;;;6.04;71.81
61394;BME280;48555;50.952;-0.120;2023-01-25T05:19:32;103087.84;;;6.09;72.08
61394;BME280;48555;50.952;-0.120;2023-01-25T05:21:58;103090.41;;;6.11;72.05
61394;BME280;48555;50.952;-0.120;2023-01-25T05:24:27;103083.44;;;6.13;71.98
61394;BME280;48555;50.952;-0.120;2023-01-25T05:26:53;103082.59;;;6.12;71.63
61394;BME280;48555;50.952;-0.120;2023-01-25T05:29:34;103087.75;;;6.16;71.72
61394;BME280;48555;50.952;-0.120;2023-01-25T05:32:01;103073.13;;;6.08;71.56
61394;BME280;48555;50.952;-0.120;2023-01-25T05:34:27;103093.13;;;6.03;71.35
61394;BME280;48555;50.952;-0.120;2023-01-25T05:36:53;103088.84;;;6.01;71.53
61394;BME280;48555;50.952;-0.120;2023-01-25T05:39:18;103082.84;;;5.97;71.24
61394;BME280;48555;50.952;-0.120;2023-01-25T05:41:43;103087.16;;;5.97;71.28
61394;BME280;48555;50.952;-0.120;2023-01-25T05:44:09;103080.31;;;5.89;71.28
61394;BME280;48555;50.952;-0.120;2023-01-25T05:46:34;103073.47;;;5.85;71.13
61394;BME280;48555;50.952;-0.120;2023-01-25T05:49:00;103067.38;;;5.85;71.30
61394;BME280;48555;50.952;-0.120;2023-01-25T05:51:25;103071.81;;;5.80;71.25
61394;BME280;48555;50.952;-0.120;2023-01-25T05:53:53;103070.97;;;5.78;71.30
61394;BME280;48555;50.952;-0.120;2023-01-25T05:56:20;103067.47;;;5.80;71.19
61394;BME280;48555;50.952;-0.120;2023-01-25T05:58:45;103072.63;;;5.83;70.99
61394;BME280;48555;50.952;-0.120;2023-01-25T06:01:10;103079.13;;;5.49;70.69
61394;BME280;48555;50.952;-0.120;2023-01-25T06:03:36;103072.97;;;4.85;71.79
61394;BME280;48555;50.952;-0.120;2023-01-25T06:06:01;103072.13;;;4.81;72.45
61394;BME280;48555;50.952;-0.120;2023-01-25T06:08:28;103066.72;;;5.04;72.12
61394;BME280;48555;50.952;-0.120;2023-01-25T06:10:54;103069.16;;;5.16;71.81
61394;BME280;48555;50.952;-0.120;2023-01-25T06:13:20;103079.41;;;5.26;71.55
61394;BME280;48555;50.952;-0.120;2023-01-25T06:15:54;103079.31;;;5.36;71.32
61394;BME280;48555;50.952;-0.120;2023-01-25T06:18:20;103083.47;;;5.48;71.19
61394;BME280;48555;50.952;-0.120;2023-01-25T06:20:45;103077.34;;;5.54;71.04
61394;BME280;48555;50.952;-0.120;2023-01-25T06:23:11;103083.34;;;5.56;70.61
61394;BME280;48555;50.952;-0.120;2023-01-25T06:25:36;103083.44;;;5.51;70.66
61394;BME280;48555;50.952;-0.120;2023-01-25T06:28:01;103080.88;;;5.48;70.57
61394;BME280;48555;50.952;-0.120;2023-01-25T06:30:27;103088.63;;;5.50;70.56
61394;BME280;48555;50.952;-0.120;2023-01-25T06:32:52;103086.03;;;5.50;70.82
61394;BME280;48555;50.952;-0.120;2023-01-25T06:35:17;103082.63;;;5.46;70.40
61394;BME280;48555;50.952;-0.120;2023-01-25T06:37:43;103080.88;;;5.48;70.56
61394;BME280;48555;50.952;-0.120;2023-01-25T06:40:09;103078.25;;;5.51;70.22
61394;BME280;48555;50.952;-0.120;2023-01-25T06:42:34;103086.84;;;5.55;70.32
61394;BME280;48555;50.952;-0.120;2023-01-25T06:44:59;103083.44;;;5.50;70.10
61394;BME280;48555;50.952;-0.120;2023-01-25T06:47:25;103081.72;;;5.50;70.33
61394;BME280;48555;50.952;-0.120;2023-01-25T06:49:50;103076.50;;;5.52;70.06
61394;BME280;48555;50.952;-0.120;2023-01-25T06:52:15;103080.84;;;5.50;70.27
61394;BME280;48555;50.952;-0.120;2023-01-25T06:54:41;103068.72;;;5.52;70.05
61394;BME280;48555;50.952;-0.120;2023-01-25T06:57:06;103073.81;;;5.58;69.98
61394;BME280;48555;50.952;-0.120;2023-01-25T06:59:34;103070.34;;;5.59;69.72
61394;BME280;48555;50.952;-0.120;2023-01-25T07:01:59;103071.41;;;5.45;69.17
61394;BME280;48555;50.952;-0.120;2023-01-25T07:04:25;103050.34;;;4.99;69.50
61394;BME280;48555;50.952;-0.120;2023-01-25T07:06:50;103066.69;;;5.07;69.94
61394;BME280;48555;50.952;-0.120;2023-01-25T07:09:15;103061.47;;;5.09;70.00
61394;BME280;48555;50.952;-0.120;2023-01-25T07:11:42;103057.03;;;5.17;69.74
61394;BME280;48555;50.952;-0.120;2023-01-25T07:14:07;103050.88;;;5.27;69.54
61394;BME280;48555;50.952;-0.120;2023-01-25T07:16:32;103056.84;;;5.34;69.41
61394;BME280;48555;50.952;-0.120;2023-01-25T07:19:10;103053.31;;;5.38;68.98
61394;BME280;48555;50.952;-0.120;2023-01-25T07:21:37;103054.25;;;5.32;68.98
61394;BME280;48555;50.952;-0.120;2023-01-25T07:24:04;103054.28;;;5.31;68.88
61394;BME280;48555;50.952;-0.120;2023-01-25T07:26:30;103063.00;;;5.27;68.86
61394;BME280;48555;50.952;-0.120;2023-01-25T07:28:56;103064.75;;;5.23;68.95
61394;BME280;48555;50.952;-0.120;2023-01-25T07:31:22;103059.56;;;5.23;68.86
61394;BME280;48555;50.952;-0.120;2023-01-25T07:33:49;103060.41;;;5.27;68.52
61394;BME280;48555;50.952;-0.120;2023-01-25T07:36:15;103058.72;;;5.24;68.36
61394;BME280;48555;50.952;-0.120;2023-01-25T07:38:40;103063.03;;;5.23;68.54
61394;BME280;48555;50.952;-0.120;2023-01-25T07:41:06;103061.38;;;5.18;68.77
61394;BME280;48555;50.952;-0.120;2023-01-25T07:43:31;103041.63;;;5.06;68.61
61394;BME280;48555;50.952;-0.120;2023-01-25T07:46:06;103051.94;;;5.12;68.96
61394;BME280;48555;50.952;-0.120;2023-01-25T07:48:32;103049.34;;;5.12;68.76
61394;BME280;48555;50.952;-0.120;2023-01-25T07:51:02;103040.72;;;5.10;69.09
61394;BME280;48555;50.952;-0.120;2023-01-25T07:53:38;103041.50;;;5.15;68.95
61394;BME280;48555;50.952;-0.120;2023-01-25T07:56:04;103039.03;;;5.05;68.46
61394;BME280;48555;50.952;-0.120;2023-01-25T07:58:30;103037.38;;;5.00;69.20
61394;BME280;48555;50.952;-0.120;2023-01-25T08:00:55;103033.94;;;4.98;69.31
61394;BME280;48555;50.952;-0.120;2023-01-25T08:03:21;103032.19;;;4.99;69.34
61394;BME280;48555;50.952;-0.120;2023-01-25T08:05:47;103039.00;;;5.08;69.62
61394;BME280;48555;50.952;-0.120;2023-01-25T08:08:13;103038.13;;;5.10;69.52
61394;BME280;48555;50.952;-0.120;2023-01-25T08:10:38;103028.63;;;5.09;69.34
61394;BME280;48555;50.952;-0.120;2023-01-25T08:13:03;103033.81;;;5.09;69.21
61394;BME280;48555;50.952;-0.120;2023-01-25T08:15:29;103039.88;;;5.07;69.17
61394;BME280;48555;50.952;-0.120;2023-01-25T08:17:58;103035.63;;;4.99;69.27
61394;BME280;48555;50.952;-0.120;2023-01-25T08:20:23;103034.06;;;4.85;69.19
61394;BME280;48555;50.952;-0.120;2023-01-25T08:22:50;103026.41;;;4.75;69.67
61394;BME280;48555;50.952;-0.120;2023-01-25T08:25:16;103022.13;;;4.71;69.77
61394;BME280;48555;50.952;-0.120;2023-01-25T08:27:41;103025.59;;;4.70;69.85
61394;BME280;48555;50.952;-0.120;2023-01-25T08:30:07;103021.28;;;4.71;70.36
61394;BME280;48555;50.952;-0.120;2023-01-25T08:32:34;103020.34;;;4.78;70.58
61394;BME280;48555;50.952;-0.120;2023-01-25T08:34:59;103016.84;;;4.79;70.55
61394;BME280;48555;50.952;-0.120;2023-01-25T08:37:24;103011.59;;;4.88;70.57
61394;BME280;48555;50.952;-0.120;2023-01-25T08:39:53;103013.16;;;5.01;70.14
61394;BME280;48555;50.952;-0.120;2023-01-25T08:42:21;103008.72;;;5.08;69.95
61394;BME280;48555;50.952;-0.120;2023-01-25T08:44:46;103016.50;;;5.10;70.00
61394;BME280;48555;50.952;-0.120;2023-01-25T08:47:12;103013.91;;;5.08;70.26
61394;BME280;48555;50.952;-0.120;2023-01-25T08:49:37;103014.78;;;5.09;70.32
61394;BME280;48555;50.952;-0.120;2023-01-25T08:52:02;103012.19;;;5.09;70.66
61394;BME280;48555;50.952;-0.120;2023-01-25T08:54:28;103013.88;;;5.13;70.56
61394;BME280;48555;50.952;-0.120;2023-01-25T08:56:53;102998.28;;;5.14;70.46
61394;BME280;48555;50.952;-0.120;2023-01-25T08:59:19;102996.63;;;5.12;70.73
61394;BME280;48555;50.952;-0.120;2023-01-25T09:01:44;103008.69;;;5.13;70.69
61394;BME280;48555;50.952;-0.120;2023-01-25T09:04:09;102993.09;;;5.16;70.66
61394;BME280;48555;50.952;-0.120;2023-01-25T09:06:35;102992.16;;;5.20;70.84
61394;BME280;48555;50.952;-0.120;2023-01-25T09:09:00;102984.38;;;5.20;70.98
61394;BME280;48555;50.952;-0.120;2023-01-25T09:11:25;102983.56;;;5.18;71.05
61394;BME280;48555;50.952;-0.120;2023-01-25T09:13:51;102983.59;;;5.15;71.41
61394;BME280;48555;50.952;-0.120;2023-01-25T09:16:19;102978.53;;;5.04;71.12
61394;BME280;48555;50.952;-0.120;2023-01-25T09:18:50;102978.63;;;4.98;71.53
61394;BME280;48555;50.952;-0.120;2023-01-25T09:21:17;102974.34;;;4.95;72.13
61394;BME280;48555;50.952;-0.120;2023-01-25T09:23:42;102976.81;;;5.06;72.08
61394;BME280;48555;50.952;-0.120;2023-01-25T09:26:09;102975.91;;;5.07;72.22
61394;BME280;48555;50.952;-0.120;2023-01-25T09:28:35;102977.63;;;5.08;72.40
61394;BME280;48555;50.952;-0.120;2023-01-25T09:31:03;102973.34;;;5.04;72.01
61394;BME280;48555;50.952;-0.120;2023-01-25T09:33:31;102965.75;;;4.92;72.37
61394;BME280;48555;50.952;-0.120;2023-01-25T09:35:57;102954.50;;;4.91;72.87
61394;BME280;48555;50.952;-0.120;2023-01-25T09:38:23;102950.16;;;4.95;72.94
61394;BME280;48555;50.952;-0.120;2023-01-25T09:41:07;102942.28;;;5.01;72.72
61394;BME280;48555;50.952;-0.120;2023-01-25T09:43:49;102942.19;;;5.06;72.83
61394;BME280;48555;50.952;-0.120;2023-01-25T09:46:38;102943.78;;;5.17;72.60
61394;BME280;48555;50.952;-0.120;2023-01-25T09:49:41;102927.13;;;5.32;72.29
61394;BME280;48555;50.952;-0.120;2023-01-25T09:54:52;102926.13;;;5.42;72.14
61394;BME280;48555;50.952;-0.120;2023-01-25T09:57:26;102932.22;;;5.41;72.36
61394;BME280;48555;50.952;-0.120;2023-01-25T09:59:55;102932.97;;;5.46;72.50
61394;BME280;48555;50.952;-0.120;2023-01-25T10:05:13;102925.94;;;5.56;72.69
61394;BME280;48555;50.952;-0.120;2023-01-25T10:10:19;102936.91;;;5.74;72.26
61394;BME280;48555;50.952;-0.120;2023-01-25T10:12:46;102935.16;;;5.74;72.00
61394;BME280;48555;50.952;-0.120;2023-01-25T10:15:21;102935.13;;;5.76;72.10
61394;BME280;48555;50.952;-0.120;2023-01-25T10:21:00;102923.66;;;5.87;71.34
61394;BME280;48555;50.952;-0.120;2023-01-25T10:26:34;102928.13;;;5.81;71.69
61394;BME280;48555;50.952;-0.120;2023-01-25T10:29:12;102922.03;;;5.82;71.54
61394;BME280;48555;50.952;-0.120;2023-01-25T10:34:36;102913.38;;;5.81;71.27
61394;BME280;48555;50.952;-0.120;2023-01-25T10:37:08;102912.38;;;5.91;71.14
61394;BME280;48555;50.952;-0.120;2023-01-25T10:39:38;102910.59;;;5.95;71.26
61394;BME280;48555;50.952;-0.120;2023-01-25T10:42:08;102900.22;;;5.94;71.19
61394;BME280;48555;50.952;-0.120;2023-01-25T10:44:36;102901.81;;;6.02;71.32
61394;BME280;48555;50.952;-0.120;2023-01-25T10:47:24;102897.41;;;6.06;71.19
61394;BME280;48555;50.952;-0.120;2023-01-25T10:49:53;102895.69;;;6.05;70.99
61394;BME280;48555;50.952;-0.120;2023-01-25T10:52:26;102892.22;;;6.06;71.08
61394;BME280;48555;50.952;-0.120;2023-01-25T10:55:16;102894.78;;;6.07;70.94
61394;BME280;48555;50.952;-0.120;2023-01-25T10:57:50;102891.34;;;6.05;71.08
61394;BME280;48555;50.952;-0.120;2023-01-25T11:00:49;102863.88;;;5.92;71.26
61394;BME280;48555;50.952;-0.120;2023-01-25T11:03:20;102872.44;;;5.99;70.97
61394;BME280;48555;50.952;-0.120;2023-01-25T11:05:55;102869.91;;;5.94;71.39
61394;BME280;48555;50.952;-0.120;2023-01-25T11:08:34;102868.88;;;6.03;71.53
61394;BME280;48555;50.952;-0.120;2023-01-25T11:11:22;102869.78;;;6.03;71.43
61394;BME280;48555;50.952;-0.120;2023-01-25T11:13:48;102868.16;;;5.96;71.64
61394;BME280;48555;50.952;-0.120;2023-01-25T11:16:37;102862.13;;;5.92;71.64
61394;BME280;48555;50.952;-0.120;2023-01-25T11:21:53;102861.19;;;5.98;71.21
61394;BME280;48555;50.952;-0.120;2023-01-25T11:24:19;102854.13;;;6.06;70.94
61394;BME280;48555;50.952;-0.120;2023-01-25T11:26:44;102847.03;;;6.14;70.53
61394;BME280;48555;50.952;-0.120;2023-01-25T11:29:11;102843.63;;;6.12;70.65
61394;BME280;48555;50.952;-0.120;2023-01-25T11:31:36;102837.63;;;6.09;70.55
61394;BME280;48555;50.952;-0.120;2023-01-25T11:34:09;102822.25;;;5.98;70.76
61394;BME280;48555;50.952;-0.120;2023-01-25T11:36:46;102823.19;;;5.92;70.86
61394;BME280;48555;50.952;-0.120;2023-01-25T12:06:42;102744.53;;;6.29;70.72
61394;BME280;48555;50.952;-0.120;2023-01-25T12:09:32;102739.22;;;6.35;70.45
61394;BME280;48555;50.952;-0.120;2023-01-25T12:28:33;102727.25;;;6.28;71.12
61394;BME280;48555;50.952;-0.120;2023-01-25T12:33:50;102715.03;;;6.32;71.31
61394;BME280;48555;50.952;-0.120;2023-01-25T12:39:03;102718.16;;;6.48;70.87
61394;BME280;48555;50.952;-0.120;2023-01-25T12:44:16;102704.56;;;6.36;71.06
61394;BME280;48555;50.952;-0.120;2023-01-25T12:47:04;102689.19;;;6.26;71.14
61394;BME280;48555;50.952;-0.120;2023-01-25T12:49:52;102696.06;;;6.30;71.38
61394;BME280;48555;50.952;-0.120;2023-01-25T12:52:40;102688.28;;;6.28;71.22
61394;BME280;48555;50.952;-0.120;2023-01-25T12:55:14;102676.81;;;6.37;71.19
61394;BME280;48555;50.952;-0.120;2023-01-25T13:06:12;102648.72;;;6.53;70.78
61394;BME280;48555;50.952;-0.120;2023-01-25T13:08:45;102635.00;;;6.48;70.92
61394;BME280;48555;50.952;-0.120;2023-01-25T13:11:13;102631.63;;;6.44;71.17
61394;BME280;48555;50.952;-0.120;2023-01-25T13:13:40;102634.09;;;6.49;71.23
61394;BME280;48555;50.952;-0.120;2023-01-25T13:18:48;102661.97;;;6.78;71.11
61394;BME280;48555;50.952;-0.120;2023-01-25T13:24:24;102673.63;;;6.97;70.67
61394;BME280;48555;50.952;-0.120;2023-01-25T13:32:07;102681.50;;;6.94;70.72
61394;BME280;48555;50.952;-0.120;2023-01-25T13:37:22;102696.53;;;6.83;70.59
61394;BME280;48555;50.952;-0.120;2023-01-25T13:39:50;102703.81;;;6.67;70.93
61394;BME280;48555;50.952;-0.120;2023-01-25T13:42:21;102709.84;;;6.69;70.83
61394;BME280;48555;50.952;-0.120;2023-01-25T13:44:50;102711.47;;;6.73;70.64
61394;BME280;48555;50.952;-0.120;2023-01-25T13:47:20;102701.88;;;6.77;70.92
61394;BME280;48555;50.952;-0.120;2023-01-25T13:52:20;102681.84;;;6.80;70.88
61394;BME280;48555;50.952;-0.120;2023-01-25T13:54:48;102673.97;;;6.83;70.94
61394;BME280;48555;50.952;-0.120;2023-01-25T13:57:19;102670.38;;;6.88;71.10
61394;BME280;48555;50.952;-0.120;2023-01-25T13:59:45;102676.25;;;6.96;71.06
61394;BME280;48555;50.952;-0.120;2023-01-25T14:02:22;102677.84;;;7.01;70.88
61394;BME280;48555;50.952;-0.120;2023-01-25T14:04:50;102665.75;;;7.00;71.04
61394;BME280;48555;50.952;-0.120;2023-01-25T14:07:19;102658.78;;;7.01;71.27
61394;BME280;48555;50.952;-0.120;2023-01-25T14:09:46;102648.38;;;7.01;71.17
61394;BME280;48555;50.952;-0.120;2023-01-25T14:14:55;102653.50;;;7.04;71.74
61394;BME280;48555;50.952;-0.120;2023-01-25T14:17:24;102642.13;;;7.08;71.68
61394;BME280;48555;50.952;-0.120;2023-01-25T14:19:53;102644.63;;;7.11;71.40
61394;BME280;48555;50.952;-0.120;2023-01-25T14:25:20;102632.38;;;7.16;71.88
61394;BME280;48555;50.952;-0.120;2023-01-25T14:30:19;102626.34;;;7.14;71.71
61394;BME280;48555;50.952;-0.120;2023-01-25T14:32:44;102636.84;;;7.11;72.01
61394;BME280;48555;50.952;-0.120;2023-01-25T14:37:54;102620.47;;;7.08;72.26
61394;BME280;48555;50.952;-0.120;2023-01-25T14:40:21;102594.63;;;7.01;72.30
61394;BME280;48555;50.952;-0.120;2023-01-25T14:42:48;102594.59;;;7.03;72.58
61394;BME280;48555;50.952;-0.120;2023-01-25T14:45:14;102584.72;;;7.14;72.28
61394;BME280;48555;50.952;-0.120;2023-01-25T14:47:40;102598.47;;;7.19;72.47
61394;BME280;48555;50.952;-0.120;2023-01-25T14:53:05;102578.38;;;7.24;72.57